Saturday, April 30, 2016
18:51 UTC
  |  Log In   |  Register Free
Airport Search:

Teterboro Airport
(KTEB)

FAA data valid effective Mar 31 2016 - May 26 2016 (unless otherwise noted).

 
 
 
 
 
 
 
 
 
 
 
 
 
 
Current Aviation Weather for KTEB

Weather Summary


The most recent METAR observation for TEB was updated at: 12:51 UTC
METAR for KTEB is not available. Closest METAR is for KLGA
KTEB  (most recent observation was updatred at 30:17 UTC)
301751Z 18007KT 150V230 10SM FEW049 16/03 A3018 RMK AO2 SLP220 T01610028 10167 20089 55003

KLGA  (9.6 nm NW)   (most recent observation was updated at 30:17 UTC)
301751Z VRB05G16KT 10SM BKN050 BKN250 17/03 A3019 RMK AO2 SLP222 T01670033 10167 20094 55004 $

KCDW  (10.1 nm SE)   (most recent observation was updated at 30:17 UTC)
301753Z 20005KT 10SM OVC049 16/03 A3019 RMK AO2 SLP229 T01560028 10161 20083 55003

TAF for KTEB is not available.
KTEB
301720Z 3018/0118 16005KT P6SM SCT050 FM302300 16006KT P6SM SCT200 FM010500 00000KT P6SM OVC250 FM011000 12004KT P6SM -RA OVC080 FM011400 11008KT 3SM -RA OVC035

KLGA  (9.6 nm NW)   (most recent observation was updatred at 30:17 UTC)
301720Z 3018/0118 05005KT P6SM SCT050 FM301900 11007KT P6SM SCT050 FM302100 17009KT P6SM SCT100 FM010200 17006KT P6SM BKN250 FM010900 11006KT P6SM OVC070 FM011100 10006KT P6SM -RA OVC060 FM011500 10009KT 4SM -RA OVC040


KEWR  (10.7 nm NE)   (most recent observation was updatred at 30:17 UTC)
301720Z 3018/0124 VRB03KT P6SM SCT040 FM301900 15006KT P6SM SCT050 FM302200 16006KT P6SM SCT150 FM010600 13004KT P6SM OVC090 FM011000 10006KT P6SM -RA OVC090 FM011400 10008KT 3SM -RA OVC030 FM011700 10009KT 2SM -RA OVC015
GlobalAir.com is loading additional information.
 Current Weather at TEB
61.0 F° (16.1 C°)

Southeast winds at 6.9 mph
Pressure:
30.18 in
Humidity:
41%
Wind:
Southeast at 6.9 mph
Dew Point:
37.0 F° (2.8 C°)
Visibility:
10.00 mi
TEB NOAA Radar




Find All Airport Services Find A Hotel Find A Rental Car Find A Golf Course Find A Restaurant $100 Hamburger



Airport Weather Forecast for KTEB

Translated METAR for KTEB (1751 UTC)
METAR:
KTEB 301751Z 18007KT 150V230 10SM FEW049 16/03 A3018 RMK AO2 SLP220 T01610028 10167 20089 55003
Conditions at:
KTEB (Teterboro, NJ) observed 1751 UTC 30 April 2016
Temperature:
16°C (60.8°F)
Dewpoint:
3°C (37.4°F) [RH = 41.7]
Pressure:
30.18 inches Hg (1022 mb)
pressure at sea level is 220 in Hg
Winds:
from the S (180 degrees) at 8.1 mph (7 knots: 3.6 m/s)
Visibility:
10 mile(s)
Ceiling:
at least 12,000 feet AGL
Clouds:
Few Clouds at 4,900 feet AGL
Remarks:
site is automated and HAS a precipitation sensor

FBO's on the Field
FBO Company Facility Photos Services Transportation Aviation Fuel Prices: Prices include tax
Catering Weather Repair Courtesy Rental Type 100LL JetA JetA+ MOGAS 8087
 
Atlantic Aviation

Currently rated 5 by 1 person
FS:Independent
Last Updated: Apr-30
Login to update fuel prices
SS:
Contact Atlantic AviationMore FBO Information
 
Jet Aviation

Currently rated 5 by 3 people
FS:Phillips 66
Last Updated: Apr-01
Login to update fuel prices
SS:
Contact Jet AviationMore FBO Information
 
Meridian Teterboro

Currently rated 5 by 4 people
FS:Shell
Last Updated: Apr-25
Login to update fuel prices
SS:
Contact Meridian TeterboroMore FBO Information
 
Signature Flight Support - East

This FBO has not yet been rated
FS:Independent
Last Updated: Apr-30
Login to update fuel prices
SS:
Contact Signature Flight Support - EastMore FBO Information
 
Signature Flight Support - South

Currently rated 5 by 5 people
FS:Epic
Last Updated: Apr-30
Login to update fuel prices
SS:
Contact Signature Flight Support - SouthMore FBO Information
 
Signature Flight Support - West

Currently rated 5 by 1 person
FS:Independent
Last Updated: Apr-30
Login to update fuel prices
SS:
Contact Signature Flight Support - WestMore FBO Information
 
Add another FBO Facility Photos Catering Weather Repair Courtesy Rental Type 100LL JetA JetA+ MOGAS 8087
Services Transportation Aviation Fuel Prices: Prices include tax


model-print
model-print
model-print
model-print